createdAt,value
2018-08-19T00:01:08.576Z,4.40
2018-08-19T00:03:36.971Z,5.20
2018-08-19T00:06:05.615Z,4.93
2018-08-19T00:08:34.047Z,5.10
2018-08-19T00:11:05.684Z,4.37
2018-08-19T00:13:34.549Z,4.73
2018-08-19T00:16:02.997Z,4.60
2018-08-19T00:18:31.462Z,4.57
2018-08-19T00:20:59.944Z,4.67
2018-08-19T00:23:35.083Z,4.60
2018-08-19T00:26:03.961Z,4.70
2018-08-19T00:28:32.348Z,5.40
2018-08-19T00:31:00.793Z,5.30
2018-08-19T00:33:29.280Z,4.63
2018-08-19T00:35:57.729Z,5.27
2018-08-19T00:38:26.145Z,5.23
2018-08-19T00:40:54.585Z,5.40
2018-08-19T00:43:23.001Z,5.50
2018-08-19T00:45:51.401Z,4.63
2018-08-19T00:48:19.781Z,4.80
2018-08-19T00:50:48.210Z,5.17
2018-08-19T00:53:16.669Z,5.10
2018-08-19T00:55:50.156Z,4.77
2018-08-19T00:58:20.625Z,4.90
2018-08-19T01:00:49.117Z,5.17
2018-08-19T01:03:17.574Z,4.73
2018-08-19T01:05:46.006Z,4.67
2018-08-19T01:08:15.035Z,4.63
2018-08-19T01:10:43.697Z,4.73
2018-08-19T01:13:13.217Z,4.70
2018-08-19T01:15:41.699Z,5.20
2018-08-19T01:18:10.262Z,5.10
2018-08-19T01:20:38.723Z,4.50
2018-08-19T01:23:07.208Z,4.67
2018-08-19T01:25:35.677Z,4.83
2018-08-19T01:28:04.210Z,4.77
2018-08-19T01:30:32.750Z,5.17
2018-08-19T01:33:01.282Z,5.10
2018-08-19T01:35:37.764Z,5.40
2018-08-19T01:38:07.416Z,4.43
2018-08-19T01:40:35.922Z,5.20
2018-08-19T01:43:05.857Z,5.03
2018-08-19T01:45:34.633Z,4.67
2018-08-19T01:48:03.197Z,4.53
2018-08-19T01:50:31.654Z,4.70
2018-08-19T01:53:00.144Z,5.40
2018-08-19T01:55:30.493Z,5.77
2018-08-19T01:57:59.041Z,5.30
2018-08-19T02:00:27.457Z,5.57
2018-08-19T02:03:00.865Z,5.57
2018-08-19T02:05:29.345Z,5.43
2018-08-19T02:08:01.526Z,5.37
2018-08-19T02:10:31.113Z,5.10
2018-08-19T02:13:00.062Z,5.37
2018-08-19T02:15:29.562Z,5.03
2018-08-19T02:18:02.069Z,4.90
2018-08-19T02:20:35.689Z,5.07
2018-08-19T02:23:05.414Z,4.70
2018-08-19T02:25:38.082Z,4.43
2018-08-19T02:28:07.976Z,4.83
2018-08-19T02:31:00.061Z,4.50
2018-08-19T02:33:31.821Z,5.30
2018-08-19T02:36:03.197Z,5.23
2018-08-19T02:38:31.994Z,4.60
2018-08-19T02:41:00.440Z,4.60
2018-08-19T02:43:28.964Z,4.73
2018-08-19T02:45:57.475Z,4.97
2018-08-19T02:48:44.632Z,4.90
2018-08-19T02:51:16.381Z,4.50
2018-08-19T02:53:45.944Z,4.57
2018-08-19T02:56:15.191Z,4.70
2018-08-19T02:58:44.453Z,5.17
2018-08-19T03:01:13.882Z,4.33
2018-08-19T03:03:42.302Z,5.27
2018-08-19T03:06:10.823Z,4.93
2018-08-19T03:08:46.950Z,4.77
2018-08-19T03:11:18.118Z,5.10
2018-08-19T03:13:46.645Z,5.50
2018-08-19T03:16:15.082Z,5.33
2018-08-19T03:18:43.550Z,5.43
2018-08-19T03:21:12.047Z,5.00
2018-08-19T03:23:40.474Z,6.03
2018-08-19T03:26:08.932Z,5.70
2018-08-19T03:28:37.416Z,5.27
2018-08-19T03:31:06.009Z,5.43
2018-08-19T03:33:34.440Z,5.37
2018-08-19T03:36:02.976Z,5.60
2018-08-19T03:38:31.419Z,5.30
2018-08-19T03:40:59.881Z,5.43
2018-08-19T03:43:28.537Z,6.27
2018-08-19T03:45:58.580Z,5.67
2018-08-19T03:48:27.149Z,5.10
2018-08-19T03:50:55.645Z,5.47
2018-08-19T03:53:24.123Z,5.60
2018-08-19T03:55:52.585Z,5.70
2018-08-19T03:58:20.975Z,6.07
2018-08-19T04:00:49.461Z,5.73
2018-08-19T04:03:23.028Z,5.87
2018-08-19T04:05:54.507Z,5.93
2018-08-19T04:08:26.459Z,6.33
2018-08-19T04:10:54.906Z,6.07
2018-08-19T04:13:31.214Z,6.13
2018-08-19T04:16:00.773Z,5.60
2018-08-19T04:18:34.386Z,5.40
2018-08-19T04:21:06.044Z,5.40
2018-08-19T04:23:34.815Z,5.73
2018-08-19T04:26:03.810Z,6.23
2018-08-19T04:28:35.733Z,6.03
2018-08-19T04:31:36.421Z,6.03
2018-08-19T04:34:04.843Z,6.00
2018-08-19T04:36:33.309Z,5.50
2018-08-19T04:39:01.721Z,5.97
2018-08-19T04:41:30.245Z,6.13
2018-08-19T04:43:58.679Z,6.70
2018-08-19T04:46:27.117Z,5.90
2018-08-19T04:48:55.525Z,6.20
2018-08-19T04:51:24.293Z,6.40
2018-08-19T04:53:52.708Z,5.70
2018-08-19T04:56:21.136Z,5.83
2018-08-19T04:58:49.531Z,6.23
2018-08-19T05:01:18.048Z,6.23
2018-08-19T05:03:46.837Z,6.20
2018-08-19T05:06:15.314Z,5.77
2018-08-19T05:08:43.718Z,6.40
2018-08-19T05:11:12.128Z,5.87
2018-08-19T05:13:40.603Z,5.90
2018-08-19T05:16:09.057Z,6.20
2018-08-19T05:18:37.511Z,5.60
2018-08-19T05:21:20.261Z,6.67
2018-08-19T05:23:49.142Z,6.87
2018-08-19T05:26:17.539Z,6.27
2018-08-19T05:29:09.994Z,6.73
2018-08-19T05:31:46.809Z,6.30
2018-08-19T05:34:20.592Z,6.87
2018-08-19T05:36:50.393Z,6.83
2018-08-19T05:39:19.029Z,7.00
2018-08-19T05:42:01.649Z,6.17
2018-08-19T05:44:36.753Z,6.90
2018-08-19T05:47:07.906Z,6.80
2018-08-19T05:49:38.201Z,7.27
2018-08-19T05:52:10.883Z,7.03
2018-08-19T05:54:44.785Z,7.03
2018-08-19T05:57:14.209Z,6.50
2018-08-19T05:59:42.621Z,7.23
2018-08-19T06:02:11.094Z,6.80
2018-08-19T06:04:39.573Z,7.63
2018-08-19T06:07:08.037Z,7.13
2018-08-19T06:09:36.582Z,6.83
2018-08-19T06:12:05.429Z,7.20
2018-08-19T06:14:33.945Z,6.50
2018-08-19T06:17:04.593Z,6.80
2018-08-19T06:19:33.806Z,7.63
2018-08-19T06:22:02.507Z,6.97
2018-08-19T06:24:30.944Z,7.27
2018-08-19T06:26:59.398Z,6.73
2018-08-19T06:29:44.795Z,6.60
2018-08-19T06:32:17.267Z,6.87
2018-08-19T06:34:45.884Z,6.73
2018-08-19T06:37:14.259Z,7.20
2018-08-19T06:39:43.608Z,7.00
2018-08-19T06:42:12.403Z,7.30
2018-08-19T06:44:41.082Z,7.23
2018-08-19T06:47:10.090Z,7.10
2018-08-19T06:49:43.493Z,7.13
2018-08-19T06:52:12.331Z,6.80
2018-08-19T06:54:40.793Z,6.60
2018-08-19T06:57:09.913Z,7.43
2018-08-19T06:59:38.669Z,7.07
2018-08-19T07:02:08.128Z,6.27
2018-08-19T07:04:42.167Z,7.40
2018-08-19T07:07:12.920Z,6.23
2018-08-19T07:09:42.320Z,6.23
2018-08-19T07:12:15.789Z,6.80
2018-08-19T07:14:44.814Z,6.43
2018-08-19T07:17:13.414Z,6.43
2018-08-19T07:19:41.919Z,5.83
2018-08-19T07:22:10.864Z,5.73
2018-08-19T07:24:40.421Z,5.60
2018-08-19T07:27:10.211Z,5.60
2018-08-19T07:29:38.781Z,4.80
2018-08-19T07:32:08.334Z,5.00
2018-08-19T07:34:36.785Z,4.90
2018-08-19T07:37:05.326Z,4.33
2018-08-19T07:39:40.002Z,4.10
2018-08-19T07:42:12.148Z,4.13
2018-08-19T07:44:40.671Z,4.97
2018-08-19T07:47:09.209Z,4.10
2018-08-19T07:49:37.660Z,4.20
2018-08-19T07:52:06.481Z,4.83
2018-08-19T07:54:34.945Z,4.30
2018-08-19T07:57:10.682Z,4.67
2018-08-19T07:59:39.126Z,4.43
2018-08-19T08:02:08.127Z,4.60
2018-08-19T08:04:43.630Z,4.53
2018-08-19T08:07:13.205Z,4.57
2018-08-19T08:09:42.217Z,4.77
2018-08-19T08:12:11.969Z,4.63
2018-08-19T08:14:44.875Z,4.73
2018-08-19T08:17:13.405Z,4.47
2018-08-19T08:19:47.409Z,4.70
2018-08-19T08:22:15.989Z,4.83
2018-08-19T08:24:44.887Z,4.70
2018-08-19T08:27:13.498Z,5.00
2018-08-19T08:29:42.087Z,4.63
2018-08-19T08:32:10.692Z,5.10
2018-08-19T08:34:39.198Z,5.10
2018-08-19T08:37:08.341Z,4.70
2018-08-19T08:39:37.714Z,5.00
2018-08-19T08:42:06.754Z,4.70
2018-08-19T08:44:35.307Z,4.87
2018-08-19T08:47:07.155Z,5.57
2018-08-19T08:49:40.841Z,4.70
2018-08-19T08:52:21.641Z,5.03
2018-08-19T08:54:53.076Z,5.10
2018-08-19T08:57:22.502Z,5.47
2018-08-19T08:59:51.589Z,5.23
2018-08-19T09:02:20.241Z,5.13
2018-08-19T09:04:49.321Z,4.80
2018-08-19T09:07:17.982Z,5.43
2018-08-19T09:09:47.364Z,5.20
2018-08-19T09:12:16.541Z,5.30
2018-08-19T09:14:45.445Z,5.43
2018-08-19T09:17:14.057Z,5.40
2018-08-19T09:19:43.649Z,4.93
2018-08-19T09:22:12.778Z,5.27
2018-08-19T09:24:41.722Z,4.80
2018-08-19T09:27:10.332Z,4.90
2018-08-19T09:29:38.754Z,6.17
2018-08-19T09:32:07.262Z,4.63
2018-08-19T09:34:35.689Z,5.30
2018-08-19T09:37:04.201Z,5.63
2018-08-19T09:39:32.706Z,5.50
2018-08-19T09:42:08.278Z,5.40
2018-08-19T09:44:37.418Z,5.47
2018-08-19T09:47:06.286Z,5.20
2018-08-19T09:49:34.960Z,5.90
2018-08-19T09:52:03.554Z,5.17
2018-08-19T09:54:34.693Z,5.30
2018-08-19T09:57:03.704Z,5.40
2018-08-19T09:59:32.155Z,5.13
2018-08-19T10:02:05.090Z,5.47
2018-08-19T10:04:33.999Z,5.33
2018-08-19T10:07:06.658Z,5.30
2018-08-19T10:09:35.189Z,5.40
2018-08-19T10:12:03.855Z,5.20
2018-08-19T10:14:32.342Z,5.70
2018-08-19T10:17:00.900Z,5.07
2018-08-19T10:19:29.351Z,5.67
2018-08-19T10:21:57.809Z,6.07
2018-08-19T10:24:27.946Z,5.63
2018-08-19T10:26:56.777Z,5.37
2018-08-19T10:29:25.217Z,5.37
2018-08-19T10:31:55.264Z,5.90
2018-08-19T10:34:31.059Z,5.53
2018-08-19T10:37:00.194Z,6.37
2018-08-19T10:39:28.621Z,5.50
2018-08-19T10:42:17.469Z,5.80
2018-08-19T10:44:47.565Z,4.83
2018-08-19T10:47:16.169Z,5.20
2018-08-19T10:49:54.647Z,5.30
2018-08-19T10:52:27.058Z,5.40
2018-08-19T10:54:56.913Z,5.63
2018-08-19T10:57:25.469Z,5.37
2018-08-19T10:59:56.075Z,5.60
2018-08-19T11:02:24.639Z,5.20
2018-08-19T11:04:56.104Z,5.87
2018-08-19T11:07:24.597Z,5.20
2018-08-19T11:10:09.641Z,5.43
2018-08-19T11:12:38.119Z,5.30
2018-08-19T11:15:16.565Z,5.30
2018-08-19T11:17:45.083Z,5.03
2018-08-19T11:20:13.683Z,5.30
2018-08-19T11:22:42.254Z,5.10
2018-08-19T11:25:11.001Z,5.73
2018-08-19T11:27:39.456Z,5.40
2018-08-19T11:30:07.998Z,5.27
2018-08-19T11:32:37.397Z,5.43
2018-08-19T11:35:06.365Z,4.97
2018-08-19T11:37:34.823Z,5.50
2018-08-19T11:40:03.352Z,5.70
2018-08-19T11:42:31.886Z,5.23
2018-08-19T11:45:00.393Z,5.57
2018-08-19T11:47:28.829Z,5.90
2018-08-19T11:49:57.307Z,5.50
2018-08-19T11:52:25.724Z,5.53
2018-08-19T11:54:54.135Z,5.23
2018-08-19T11:57:23.852Z,5.67
2018-08-19T11:59:54.141Z,5.57
2018-08-19T12:02:23.989Z,5.63
2018-08-19T12:05:00.825Z,5.10
2018-08-19T12:07:29.282Z,5.80
2018-08-19T12:10:01.448Z,5.50
2018-08-19T12:12:43.222Z,5.50
2018-08-19T12:15:11.803Z,5.40
2018-08-19T12:17:40.380Z,5.87
2018-08-19T12:20:09.209Z,5.80
2018-08-19T12:22:38.931Z,5.33
2018-08-19T12:25:07.449Z,5.13
2018-08-19T12:27:35.984Z,5.30
2018-08-19T12:30:11.685Z,5.60
2018-08-19T12:32:40.114Z,5.70
2018-08-19T12:35:08.585Z,5.73
2018-08-19T12:37:37.068Z,5.50
2018-08-19T12:40:06.150Z,5.27
2018-08-19T12:42:40.447Z,5.63
2018-08-19T12:45:09.132Z,5.80
2018-08-19T12:47:38.001Z,5.70
2018-08-19T12:50:08.327Z,5.70
2018-08-19T12:52:36.869Z,5.77
2018-08-19T12:55:18.907Z,5.63
2018-08-19T12:57:51.727Z,5.33
2018-08-19T13:00:23.157Z,5.87
2018-08-19T13:02:52.515Z,5.57
2018-08-19T13:05:21.311Z,5.80
2018-08-19T13:07:49.879Z,5.53
2018-08-19T13:10:18.808Z,5.70
2018-08-19T13:12:52.015Z,5.90
2018-08-19T13:15:20.589Z,5.40
2018-08-19T13:17:49.009Z,5.93
2018-08-19T13:20:17.412Z,6.23
2018-08-19T13:22:51.855Z,5.77
2018-08-19T13:25:21.677Z,5.42
2018-08-19T13:27:50.236Z,5.70
2018-08-19T13:30:19.453Z,5.70
2018-08-19T13:32:48.490Z,5.62
2018-08-19T13:35:16.918Z,5.37
2018-08-19T13:37:45.590Z,4.92
2018-08-19T13:40:14.772Z,5.42
2018-08-19T13:42:43.481Z,5.50
2018-08-19T13:45:21.370Z,5.45
2018-08-19T13:47:54.201Z,5.60
2018-08-19T13:50:22.682Z,5.62
2018-08-19T13:52:51.097Z,5.65
2018-08-19T13:55:20.504Z,5.60
2018-08-19T13:57:48.950Z,5.78
2018-08-19T14:00:22.046Z,5.60
2018-08-19T14:02:50.913Z,5.30
2018-08-19T14:05:19.401Z,6.08
2018-08-19T14:07:48.888Z,5.85
2018-08-19T14:10:33.130Z,5.33
2018-08-19T14:13:01.695Z,5.08
2018-08-19T14:15:30.136Z,5.40
2018-08-19T14:17:58.618Z,5.67
2018-08-19T14:20:27.792Z,5.60
2018-08-19T14:22:56.247Z,5.62
2018-08-19T14:25:24.682Z,5.75
2018-08-19T14:27:53.127Z,5.87
2018-08-19T14:30:21.655Z,5.62
2018-08-19T14:32:50.055Z,4.85
2018-08-19T14:35:18.499Z,5.92
2018-08-19T14:37:46.919Z,5.37
2018-08-19T14:40:18.301Z,5.85
2018-08-19T14:42:46.681Z,5.45
2018-08-19T14:45:15.293Z,5.42
2018-08-19T14:47:43.729Z,5.45
2018-08-19T14:50:16.465Z,5.58
2018-08-19T14:52:45.005Z,5.78
2018-08-19T14:55:13.545Z,5.62
2018-08-19T14:57:41.980Z,5.95
2018-08-19T15:00:12.487Z,5.45
2018-08-19T15:02:41.165Z,6.00
2018-08-19T15:05:15.752Z,5.17
2018-08-19T15:07:44.624Z,5.28
2018-08-19T15:10:16.799Z,5.62
2018-08-19T15:12:45.261Z,5.67
2018-08-19T15:15:13.722Z,6.17
2018-08-19T15:17:46.443Z,5.75
2018-08-19T15:20:37.730Z,5.70
2018-08-19T15:23:18.138Z,5.62
2018-08-19T15:25:46.671Z,5.65
2018-08-19T15:28:15.393Z,5.67
2018-08-19T15:30:44.915Z,5.25
2018-08-19T15:33:14.271Z,5.95
2018-08-19T15:35:43.258Z,5.85
2018-08-19T15:38:12.369Z,5.95
2018-08-19T15:40:44.640Z,6.15
2018-08-19T15:43:13.588Z,5.62
2018-08-19T15:45:42.754Z,6.20
2018-08-19T15:48:11.429Z,5.37
2018-08-19T15:50:39.934Z,5.78
2018-08-19T16:00:09.228Z,5.55
2018-08-19T16:02:37.933Z,5.58
2018-08-19T16:05:11.350Z,6.33
2018-08-19T16:07:39.946Z,5.92
2018-08-19T16:10:08.411Z,5.95
2018-08-19T16:12:40.460Z,6.50
2018-08-19T16:15:12.900Z,6.40
2018-08-19T16:17:41.342Z,6.10
2018-08-19T16:20:09.752Z,5.65
2018-08-19T16:22:38.227Z,5.85
2018-08-19T16:25:06.719Z,5.72
2018-08-19T16:27:35.365Z,5.80
2018-08-19T16:30:03.895Z,6.20
2018-08-19T16:32:44.836Z,6.15
2018-08-19T16:35:13.690Z,5.85
2018-08-19T16:37:42.365Z,5.83
2018-08-19T16:40:12.409Z,5.47
2018-08-19T16:42:41.602Z,6.05
2018-08-19T16:45:11.224Z,6.00
2018-08-19T16:47:40.128Z,5.53
2018-08-19T16:50:10.903Z,5.60
2018-08-19T16:52:39.418Z,5.90
2018-08-19T16:55:08.348Z,5.67
2018-08-19T16:57:38.862Z,6.10
2018-08-19T17:00:08.649Z,6.13
2018-08-19T17:02:37.190Z,5.73
2018-08-19T17:05:15.526Z,5.80
2018-08-19T17:07:44.614Z,6.23
2018-08-19T17:10:19.815Z,5.40
2018-08-19T17:12:48.233Z,5.43
2018-08-19T17:15:16.730Z,5.67
2018-08-19T17:17:45.195Z,5.33
2018-08-19T17:20:13.628Z,5.40
2018-08-19T17:22:42.202Z,5.30
2018-08-19T17:25:10.682Z,5.37
2018-08-19T17:27:39.102Z,5.50
2018-08-19T17:30:15.746Z,5.37
2018-08-19T17:32:44.366Z,6.00
2018-08-19T17:35:13.939Z,5.77
2018-08-19T17:37:42.301Z,5.33
2018-08-19T17:40:10.773Z,5.07
2018-08-19T17:42:39.234Z,5.60
2018-08-19T17:45:07.971Z,6.10
2018-08-19T17:47:36.544Z,5.83
2018-08-19T17:50:05.488Z,5.43
2018-08-19T17:52:33.950Z,5.30
2018-08-19T17:55:02.730Z,5.33
2018-08-19T17:57:32.217Z,5.37
2018-08-19T18:00:00.709Z,5.10
2018-08-19T18:02:30.317Z,5.10
2018-08-19T18:04:59.142Z,5.30
2018-08-19T18:07:28.596Z,5.30
2018-08-19T18:09:59.112Z,5.13
2018-08-19T18:12:27.545Z,4.97
2018-08-19T18:14:56.195Z,5.50
2018-08-19T18:17:24.738Z,5.53
2018-08-19T18:19:53.339Z,5.90
2018-08-19T18:22:22.259Z,5.07
2018-08-19T18:24:55.936Z,5.20
2018-08-19T18:27:24.384Z,5.00
2018-08-19T18:29:52.886Z,5.97
2018-08-19T18:32:23.163Z,5.30
2018-08-19T18:34:51.622Z,5.13
2018-08-19T18:37:20.059Z,5.00
2018-08-19T18:39:48.539Z,4.83
2018-08-19T18:42:30.994Z,4.97
2018-08-19T18:45:01.334Z,5.00
2018-08-19T18:47:29.789Z,5.20
2018-08-19T18:49:58.253Z,5.00
2018-08-19T18:52:26.741Z,5.23
2018-08-19T18:55:09.278Z,4.90
2018-08-19T18:57:42.141Z,5.17
2018-08-19T19:00:12.050Z,4.67
2018-08-19T19:02:45.133Z,4.87
2018-08-19T19:05:26.441Z,4.53
2018-08-19T19:07:57.131Z,5.00
2018-08-19T19:10:25.647Z,4.70
2018-08-19T19:12:54.234Z,5.23
2018-08-19T19:15:22.826Z,5.17
2018-08-19T19:17:51.453Z,4.83
2018-08-19T19:20:19.889Z,4.70
2018-08-19T19:22:53.570Z,5.17
2018-08-19T19:25:26.562Z,4.60
2018-08-19T19:27:55.010Z,5.00
2018-08-19T19:30:23.425Z,4.83
2018-08-19T19:32:55.470Z,5.07
2018-08-19T19:35:26.053Z,4.90
2018-08-19T19:37:54.501Z,5.03
2018-08-19T19:40:23.064Z,5.23
2018-08-19T19:42:51.513Z,5.00
2018-08-19T19:45:20.114Z,5.23
2018-08-19T19:47:48.550Z,5.00
2018-08-19T19:50:16.981Z,5.17
2018-08-19T19:52:54.681Z,5.53
2018-08-19T19:55:24.333Z,5.47
2018-08-19T19:57:52.818Z,5.00
2018-08-19T20:00:21.273Z,5.20
2018-08-19T20:02:54.765Z,5.23
2018-08-19T20:08:16.197Z,4.70
2018-08-19T20:10:44.693Z,4.83
2018-08-19T20:13:32.571Z,4.97
2018-08-19T20:16:01.047Z,5.10
2018-08-19T20:18:29.566Z,5.33
2018-08-19T20:20:58.083Z,5.37
2018-08-19T20:23:26.633Z,5.27
2018-08-19T20:25:55.829Z,5.20
2018-08-19T20:28:24.314Z,5.30
2018-08-19T20:30:52.786Z,4.80
2018-08-19T20:33:26.437Z,5.23
2018-08-19T20:35:55.641Z,4.70
2018-08-19T20:38:24.689Z,5.00
2018-08-19T20:40:53.459Z,5.80
2018-08-19T20:43:24.546Z,4.93
2018-08-19T20:45:53.007Z,4.63
2018-08-19T20:48:22.432Z,5.27
2018-08-19T20:50:51.153Z,5.17
2018-08-19T20:53:19.742Z,5.17
2018-08-19T20:55:50.212Z,5.40
2018-08-19T20:58:18.613Z,4.83
2018-08-19T21:00:47.026Z,5.47
2018-08-19T21:03:15.434Z,5.43
2018-08-19T21:05:43.862Z,5.10
2018-08-19T21:08:15.979Z,5.60
2018-08-19T21:10:45.373Z,4.67
2018-08-19T21:13:14.985Z,5.60
2018-08-19T21:15:44.626Z,5.27
2018-08-19T21:18:13.077Z,5.60
2018-08-19T21:20:41.517Z,5.13
2018-08-19T21:23:10.950Z,5.17
2018-08-19T21:25:44.578Z,5.67
2018-08-19T21:28:13.425Z,5.93
2018-08-19T21:30:41.860Z,5.10
2018-08-19T21:33:10.273Z,5.50
2018-08-19T21:35:43.821Z,5.53
2018-08-19T21:38:12.273Z,5.20
2018-08-19T21:40:40.751Z,5.40
2018-08-19T21:43:09.486Z,5.43
2018-08-19T21:45:38.400Z,5.50
2018-08-19T21:48:11.251Z,5.50
2018-08-19T21:50:39.764Z,5.77
2018-08-19T21:53:10.469Z,5.70
2018-08-19T21:55:40.266Z,5.27
2018-08-19T21:58:08.802Z,5.70
2018-08-19T22:00:45.594Z,6.10
2018-08-19T22:03:21.293Z,6.20
2018-08-19T22:05:51.914Z,6.40
2018-08-19T22:08:22.335Z,6.13
2018-08-19T22:12:19.950Z,6.00
2018-08-19T22:14:48.391Z,6.67
2018-08-19T22:17:16.934Z,5.60
2018-08-19T22:19:51.104Z,6.17
2018-08-19T22:22:19.571Z,6.40
2018-08-19T22:24:48.044Z,6.57
2018-08-19T22:27:17.776Z,6.30
2018-08-19T22:29:46.323Z,5.93
2018-08-19T22:32:14.768Z,6.43
2018-08-19T22:34:43.321Z,6.10
2018-08-19T22:37:11.820Z,6.30
2018-08-19T22:39:40.263Z,6.27
2018-08-19T22:42:08.773Z,5.87
2018-08-19T22:44:37.241Z,5.87
2018-08-19T22:47:05.734Z,5.73
2018-08-19T22:49:34.214Z,6.47
2018-08-19T22:52:20.749Z,6.17
2018-08-19T22:54:51.549Z,6.03
2018-08-19T22:57:20.118Z,5.73
2018-08-19T22:59:48.542Z,5.93
2018-08-19T23:02:17.329Z,6.47
2018-08-19T23:10:50.841Z,5.87
2018-08-19T23:13:33.685Z,5.80
2018-08-19T23:16:04.848Z,5.80
2018-08-19T23:18:33.309Z,6.10
2018-08-19T23:21:02.922Z,6.07
2018-08-19T23:23:32.302Z,5.80
2018-08-19T23:26:00.825Z,6.30
2018-08-19T23:28:29.429Z,5.97
2018-08-19T23:30:58.152Z,5.70
2018-08-19T23:33:27.125Z,6.33
2018-08-19T23:35:55.699Z,6.03
2018-08-19T23:38:24.199Z,6.17
2018-08-19T23:40:52.655Z,6.23
2018-08-19T23:43:21.134Z,6.00
2018-08-19T23:45:49.682Z,5.77
2018-08-19T23:48:18.122Z,6.70
2018-08-19T23:50:46.548Z,6.20
2018-08-19T23:53:14.968Z,5.87
2018-08-19T23:55:43.367Z,6.20
2018-08-19T23:58:11.799Z,7.10
